Time;durP1;ratioP1;P1;durP2;ratioP2;P2;SDS_P1;SDS_P2;PMS_P1;PMS_P2;Temp;Humidity;BMP_temperature;BMP_pressure;BME280_temperature;BME280_humidity;BME280_pressure;Samples;Min_cycle;Max_cycle;Signal;HPM_P1;HPM_P2
2022/12/30 00:02:19;;;;;;;;;1.50;1.50;;;;;7.50;76.58;100806.16;5071814;28;10617;-66
2022/12/30 00:04:46;;;;;;;;;0.25;0.00;;;;;7.47;76.55;100805.66;5071371;28;10645;-65
2022/12/30 00:07:12;;;;;;;;;2.00;1.00;;;;;7.39;77.25;100811.91;5071709;28;10613;-65
2022/12/30 00:09:38;;;;;;;;;2.50;1.00;;;;;7.36;77.27;100815.75;5071764;28;10681;-64
2022/12/30 00:34:28;;;;;;;;;1.00;1.00;;;;;7.09;78.88;100838.44;5070625;28;11334;-65
2022/12/30 00:36:56;;;;;;;;;2.00;1.00;;;;;7.14;78.40;100835.25;5071223;28;10651;-64
2022/12/30 00:39:22;;;;;;;;;11.50;1.25;;;;;7.14;78.82;100840.59;5071103;28;10805;-66
2022/12/30 00:44:34;;;;;;;;;3.25;1.00;;;;;7.19;78.88;100844.44;5070772;28;11443;-64
2022/12/30 00:47:02;;;;;;;;;1.75;1.75;;;;;7.17;78.82;100842.91;5070971;28;10647;-67
2022/12/30 00:57:43;;;;;;;;;2.00;1.00;;;;;7.04;79.01;100847.97;5071103;28;10783;-66
2022/12/30 01:00:11;;;;;;;;;2.75;2.50;;;;;7.02;78.99;100839.31;5070850;28;10714;-66
2022/12/30 01:02:38;;;;;;;;;3.50;1.00;;;;;7.03;79.16;100840.97;5070788;28;11646;-66
2022/12/30 01:05:05;;;;;;;;;1.50;1.50;;;;;7.03;79.18;100854.34;5070565;28;10688;-66
2022/12/30 01:07:32;;;;;;;;;1.25;1.00;;;;;7.03;79.19;100857.84;5070380;28;10794;-67
2022/12/30 01:09:58;;;;;;;;;2.00;2.00;;;;;7.06;79.20;100859.38;5070506;28;10677;-66
2022/12/30 01:12:26;;;;;;;;;1.00;1.00;;;;;7.07;78.84;100874.41;5070441;28;10751;-66
2022/12/30 01:14:54;;;;;;;;;2.00;1.75;;;;;7.07;78.77;100864.53;5070188;28;10548;-66
2022/12/30 01:17:28;;;;;;;;;1.00;1.00;;;;;7.03;78.84;100863.22;5070299;28;10788;-66
2022/12/30 01:19:54;;;;;;;;;3.00;1.50;;;;;7.04;78.80;100872.06;5070547;28;10638;-65
2022/12/30 01:22:21;;;;;;;;;1.00;1.00;;;;;7.03;78.68;100873.09;5071253;28;10805;-67
2022/12/30 01:24:47;;;;;;;;;2.00;2.00;;;;;7.05;78.76;100866.56;5070271;28;10828;-67
2022/12/30 01:27:14;;;;;;;;;6.25;2.00;;;;;6.95;79.11;100865.91;5070430;28;10773;-68
2022/12/30 01:29:42;;;;;;;;;7.00;1.00;;;;;6.94;79.13;100866.91;5070251;28;10709;-65
2022/12/30 01:32:13;;;;;;;;;1.50;1.00;;;;;6.97;79.08;100869.25;5070228;28;10787;-67
2022/12/30 01:34:40;;;;;;;;;5.75;4.00;;;;;6.94;79.05;100867.75;5069795;28;10768;-66
2022/12/30 01:37:07;;;;;;;;;3.00;1.25;;;;;6.91;79.59;100867.25;5070108;28;11691;-66
2022/12/30 01:39:34;;;;;;;;;0.75;0.75;;;;;6.92;79.80;100871.59;5070176;28;10863;-65
2022/12/30 01:42:02;;;;;;;;;1.25;1.00;;;;;6.93;79.33;100881.31;5069972;28;10886;-67
2022/12/30 01:44:51;;;;;;;;;7.00;2.00;;;;;6.88;79.06;100889.81;5069826;28;10885;-66
2022/12/30 01:47:20;;;;;;;;;1.00;1.00;;;;;6.91;79.40;100891.31;5070047;28;10766;-67
2022/12/30 01:49:51;;;;;;;;;2.75;2.00;;;;;6.94;79.02;100894.50;5070072;28;11631;-66
2022/12/30 01:52:23;;;;;;;;;1.00;1.00;;;;;6.96;79.21;100891.66;5069937;28;11024;-64
2022/12/30 01:54:51;;;;;;;;;1.25;0.25;;;;;6.96;79.45;100882.78;5069783;28;10787;-66
2022/12/30 01:57:19;;;;;;;;;3.75;1.00;;;;;6.98;79.02;100880.78;5070104;28;10982;-65
2022/12/30 01:59:47;;;;;;;;;1.50;1.00;;;;;7.00;79.17;100873.41;5069862;28;10925;-66
2022/12/30 02:02:14;;;;;;;;;1.75;1.25;;;;;6.96;79.52;100870.25;5069903;28;10920;-65
2022/12/30 02:04:45;;;;;;;;;4.00;1.50;;;;;6.96;79.05;100864.88;5072471;28;10838;-67
2022/12/30 02:07:11;;;;;;;;;1.25;1.25;;;;;6.95;78.48;100860.53;5074217;28;10930;-65
2022/12/30 02:09:38;;;;;;;;;3.50;2.00;;;;;6.89;78.53;100855.88;5073860;28;11586;-66
2022/12/30 02:12:06;;;;;;;;;8.00;4.25;;;;;6.82;78.98;100850.38;5073847;28;11020;-65
2022/12/30 02:14:36;;;;;;;;;2.50;1.50;;;;;6.80;79.17;100847.00;5073809;28;10806;-65
2022/12/30 02:17:13;;;;;;;;;1.00;1.00;;;;;6.76;79.00;100843.00;5073909;28;10738;-66
2022/12/30 02:20:17;;;;;;;;;2.00;2.00;;;;;6.75;79.28;100841.34;5073691;28;10984;-67
2022/12/30 02:23:08;;;;;;;;;4.25;4.00;;;;;6.65;79.38;100830.84;5073360;28;11054;-66
2022/12/30 02:25:59;;;;;;;;;1.75;1.75;;;;;6.69;79.86;100834.00;5073232;28;10926;-65
2022/12/30 02:29:03;;;;;;;;;2.25;0.75;;;;;6.72;79.63;100828.31;5073617;28;10760;-65
2022/12/30 02:31:46;;;;;;;;;1.00;1.00;;;;;6.68;79.70;100821.63;5073537;28;10851;-66
2022/12/30 02:34:52;;;;;;;;;3.25;1.00;;;;;6.68;79.78;100829.63;5073149;28;10776;-66
2022/12/30 02:37:41;;;;;;;;;2.00;1.00;;;;;6.60;80.27;100829.66;5073216;28;10998;-66
2022/12/30 02:46:28;;;;;;;;;3.00;1.00;;;;;6.47;80.38;100838.19;5073245;28;10808;-63
2022/12/30 02:48:57;;;;;;;;;3.50;1.50;;;;;6.43;79.91;100836.84;5073047;28;10793;-63
2022/12/30 02:54:13;;;;;;;;;2.25;1.50;;;;;6.39;80.65;100831.00;5072758;28;11562;-66
2022/12/30 02:56:47;;;;;;;;;4.50;0.00;;;;;6.47;81.39;100843.53;5072840;28;10977;-63
2022/12/30 03:05:20;;;;;;;;;1.25;1.25;;;;;6.43;80.73;100850.22;5075353;28;10936;-63
2022/12/30 03:08:02;;;;;;;;;3.00;2.00;;;;;6.44;81.16;100842.06;5080243;28;11042;-64
2022/12/30 03:13:39;;;;;;;;;3.50;2.00;;;;;6.42;80.97;100848.56;5073170;28;10933;-67
2022/12/30 03:16:12;;;;;;;;;4.00;1.00;;;;;6.36;81.28;100855.41;5071901;28;11109;-66
2022/12/30 03:18:39;;;;;;;;;1.50;1.50;;;;;6.26;80.48;100854.72;5071624;28;10952;-63
2022/12/30 03:21:10;;;;;;;;;2.75;1.00;;;;;6.29;80.98;100840.22;5072614;28;10938;-65
2022/12/30 03:29:19;;;;;;;;;4.00;1.75;;;;;6.38;81.21;100813.28;5072367;28;10845;-64
2022/12/30 03:31:46;;;;;;;;;1.50;1.25;;;;;6.37;80.66;100821.50;5072258;28;11170;-63
2022/12/30 03:34:13;;;;;;;;;5.00;4.00;;;;;6.37;81.14;100824.16;5071775;28;11654;-62
2022/12/30 03:36:44;;;;;;;;;5.00;1.25;;;;;6.39;80.41;100814.97;5072218;28;11055;-66
2022/12/30 03:39:21;;;;;;;;;1.00;1.00;;;;;6.37;80.67;100806.28;5072427;28;10849;-65
2022/12/30 03:41:49;;;;;;;;;1.75;1.75;;;;;6.30;80.02;100817.81;5070934;28;11133;-65
2022/12/30 03:44:18;;;;;;;;;3.25;3.25;;;;;6.23;80.55;100817.63;5071831;28;11654;-64
2022/12/30 03:46:46;;;;;;;;;2.50;1.00;;;;;6.26;80.51;100803.94;5072166;28;11163;-66
2022/12/30 03:49:13;;;;;;;;;2.50;2.50;;;;;6.32;80.68;100808.63;5072390;28;10812;-63
2022/12/30 03:51:40;;;;;;;;;1.00;1.00;;;;;6.30;80.68;100815.97;5072013;28;10898;-64
2022/12/30 03:54:06;;;;;;;;;4.00;4.00;;;;;6.30;80.35;100810.63;5071773;28;10929;-66
2022/12/30 03:56:33;;;;;;;;;3.50;2.00;;;;;6.24;80.45;100811.31;5071746;28;10800;-66
2022/12/30 03:58:59;;;;;;;;;4.75;4.25;;;;;6.24;80.38;100810.44;5071861;28;11692;-66
2022/12/30 04:01:25;;;;;;;;;2.00;2.00;;;;;6.24;80.30;100813.13;5071854;28;10991;-66
2022/12/30 04:03:52;;;;;;;;;3.50;1.50;;;;;6.28;80.57;100815.31;5071627;28;11781;-64
2022/12/30 04:06:19;;;;;;;;;3.75;2.00;;;;;6.20;80.61;100820.66;5071649;28;10982;-66
2022/12/30 04:08:45;;;;;;;;;4.00;4.00;;;;;6.16;80.68;100811.31;5071649;28;11033;-66
2022/12/30 04:11:11;;;;;;;;;1.25;1.25;;;;;6.23;80.30;100814.13;5071361;28;11021;-65
2022/12/30 04:13:38;;;;;;;;;2.75;2.75;;;;;6.24;80.95;100821.13;5070490;28;11106;-66
2022/12/30 04:16:05;;;;;;;;;2.50;2.00;;;;;6.25;81.00;100812.97;5071131;28;11192;-66
2022/12/30 04:18:31;;;;;;;;;2.00;2.00;;;;;6.29;80.65;100811.63;5071493;28;10951;-67
2022/12/30 04:20:58;;;;;;;;;3.00;1.00;;;;;6.24;80.06;100805.97;5071410;28;10946;-67
2022/12/30 04:23:24;;;;;;;;;4.00;3.00;;;;;6.25;79.83;100799.59;5071134;28;10944;-66
2022/12/30 04:25:51;;;;;;;;;2.00;1.50;;;;;6.19;80.23;100801.09;5071041;28;10940;-65
2022/12/30 04:28:17;;;;;;;;;2.50;2.00;;;;;6.21;80.49;100794.75;5070352;28;10916;-66
2022/12/30 04:30:43;;;;;;;;;7.00;4.75;;;;;6.18;80.26;100798.59;5071277;28;11751;-65
2022/12/30 04:33:10;;;;;;;;;1.25;1.00;;;;;6.18;80.17;100801.28;5071290;28;11065;-64
2022/12/30 04:35:36;;;;;;;;;2.00;2.00;;;;;6.12;80.18;100810.78;5070847;28;10990;-66
2022/12/30 04:38:03;;;;;;;;;5.75;3.50;;;;;6.15;80.72;100801.59;5070994;28;10983;-65
2022/12/30 04:40:29;;;;;;;;;4.00;4.00;;;;;6.15;80.81;100801.59;5071078;28;10843;-66
2022/12/30 04:42:56;;;;;;;;;4.50;1.00;;;;;6.15;80.66;100799.75;5070925;28;11008;-66
2022/12/30 04:45:22;;;;;;;;;4.00;1.25;;;;;6.17;80.04;100812.97;5070693;28;11081;-66
2022/12/30 04:47:48;;;;;;;;;2.00;2.00;;;;;6.19;79.66;100797.59;5070876;28;10932;-65
2022/12/30 04:50:15;;;;;;;;;2.00;1.50;;;;;6.19;80.03;100794.91;5070841;28;11038;-66
2022/12/30 04:52:41;;;;;;;;;2.50;2.50;;;;;6.14;80.45;100794.59;5070678;28;10959;-65
2022/12/30 04:55:08;;;;;;;;;3.00;1.50;;;;;6.15;80.16;100801.59;5070575;28;10919;-65
2022/12/30 04:57:35;;;;;;;;;1.50;1.25;;;;;6.08;80.07;100800.59;5070573;28;10934;-66
2022/12/30 05:00:03;;;;;;;;;1.75;1.75;;;;;6.11;80.10;100794.91;5070690;28;11025;-65
2022/12/30 05:02:29;;;;;;;;;7.50;2.00;;;;;6.15;80.08;100805.09;5070427;28;10858;-66
2022/12/30 05:04:56;;;;;;;;;4.25;3.00;;;;;6.08;80.25;100804.13;5070204;28;11092;-66
2022/12/30 05:07:23;;;;;;;;;1.00;0.00;;;;;6.11;79.95;100802.94;5070530;28;11812;-67
2022/12/30 05:09:49;;;;;;;;;4.00;2.00;;;;;6.05;79.90;100796.41;5070562;28;10857;-65
2022/12/30 05:12:15;;;;;;;;;1.00;1.00;;;;;6.06;79.95;100802.59;5070460;28;10863;-66
2022/12/30 05:14:42;;;;;;;;;2.00;2.00;;;;;6.09;80.07;100804.94;5070229;28;10988;-66
2022/12/30 05:17:08;;;;;;;;;4.50;3.00;;;;;6.05;79.84;100785.72;5070375;28;10931;-66
2022/12/30 05:19:35;;;;;;;;;2.50;2.00;;;;;6.04;79.72;100785.91;5070272;28;12123;-67
2022/12/30 05:22:01;;;;;;;;;1.75;1.00;;;;;6.07;80.10;100780.22;5070198;28;11047;-66
2022/12/30 05:27:13;;;;;;;;;7.00;4.00;;;;;6.00;79.89;100781.91;5070288;28;11788;-67
2022/12/30 05:29:39;;;;;;;;;6.25;5.00;;;;;6.00;80.11;100792.59;5070401;28;11252;-66
2022/12/30 05:32:05;;;;;;;;;6.50;5.00;;;;;6.01;80.10;100779.06;5070286;28;10938;-65
2022/12/30 05:34:32;;;;;;;;;3.00;2.00;;;;;6.04;80.30;100784.06;5069918;28;11113;-65
2022/12/30 05:36:58;;;;;;;;;1.75;1.75;;;;;6.12;79.88;100783.25;5070383;28;11150;-64
2022/12/30 05:39:25;;;;;;;;;4.75;4.00;;;;;6.08;79.82;100776.56;5069966;28;10964;-65
2022/12/30 05:41:51;;;;;;;;;6.50;4.00;;;;;6.11;79.16;100773.53;5070234;28;11099;-66
2022/12/30 05:44:17;;;;;;;;;2.00;2.00;;;;;6.02;79.19;100785.22;5069723;28;10973;-66
2022/12/30 05:46:44;;;;;;;;;3.00;3.00;;;;;6.01;79.32;100784.41;5070008;28;11768;-65
2022/12/30 05:49:10;;;;;;;;;5.00;3.00;;;;;5.99;79.53;100785.56;5070024;28;11040;-65
2022/12/30 05:51:37;;;;;;;;;1.00;1.00;;;;;5.96;79.57;100776.03;5070065;28;10934;-64
2022/12/30 05:54:03;;;;;;;;;4.75;4.75;;;;;5.90;79.66;100768.66;5069738;28;11163;-65
2022/12/30 05:56:30;;;;;;;;;4.00;3.50;;;;;5.87;79.91;100769.81;5069962;28;11102;-64
2022/12/30 05:58:56;;;;;;;;;5.00;5.00;;;;;5.80;79.77;100776.81;5070213;28;11100;-65
2022/12/30 06:01:23;;;;;;;;;5.50;4.25;;;;;5.73;79.99;100772.31;5069973;28;11075;-65
2022/12/30 06:03:49;;;;;;;;;8.75;5.00;;;;;5.67;80.43;100757.75;5069924;28;11480;-65
2022/12/30 06:06:16;;;;;;;;;3.75;3.75;;;;;5.73;80.12;100762.47;5069779;28;11015;-65
2022/12/30 06:08:42;;;;;;;;;6.00;2.25;;;;;5.74;80.21;100761.44;5069970;28;11184;-65
2022/12/30 06:11:09;;;;;;;;;4.50;2.50;;;;;5.72;79.91;100751.94;5069977;28;10957;-65
2022/12/30 06:13:35;;;;;;;;;1.00;1.00;;;;;5.70;79.85;100747.59;5070021;28;11158;-65
2022/12/30 06:16:01;;;;;;;;;5.00;2.50;;;;;5.68;80.12;100757.59;5069416;28;11122;-65
2022/12/30 06:18:28;;;;;;;;;4.00;2.00;;;;;5.67;80.08;100747.94;5069780;28;10995;-65
2022/12/30 06:20:55;;;;;;;;;1.75;1.75;;;;;5.70;80.07;100739.56;5069952;28;11031;-65
2022/12/30 06:23:22;;;;;;;;;3.25;3.25;;;;;5.65;80.27;100736.56;5069845;28;11005;-65
2022/12/30 06:25:57;;;;;;;;;1.50;1.50;;;;;5.71;80.69;100735.06;5069583;28;11032;-65
2022/12/30 06:28:25;;;;;;;;;5.00;3.00;;;;;5.63;80.17;100729.72;5069855;28;11022;-64
2022/12/30 06:30:52;;;;;;;;;4.00;4.00;;;;;5.57;80.64;100725.88;5069736;28;11044;-65
2022/12/30 06:33:19;;;;;;;;;4.00;4.00;;;;;5.58;80.42;100726.72;5069837;28;11224;-66
2022/12/30 06:35:47;;;;;;;;;4.50;4.00;;;;;5.56;80.56;100723.38;5069565;28;11087;-65
2022/12/30 06:38:13;;;;;;;;;7.00;5.00;;;;;5.61;80.49;100729.88;5069668;28;12199;-65
2022/12/30 06:40:40;;;;;;;;;4.50;4.50;;;;;5.57;80.18;100733.06;5069749;28;11286;-65
2022/12/30 06:43:06;;;;;;;;;2.00;2.00;;;;;5.54;80.85;100725.38;5069426;28;11104;-65
2022/12/30 06:45:34;;;;;;;;;2.50;2.50;;;;;5.53;80.58;100721.03;5069555;28;11175;-65
2022/12/30 06:48:00;;;;;;;;;2.50;2.50;;;;;5.54;81.10;100723.53;5069793;28;11020;-64
2022/12/30 06:50:26;;;;;;;;;2.50;2.00;;;;;5.48;80.28;100710.03;5070403;28;11080;-64
2022/12/30 06:52:53;;;;;;;;;4.25;3.50;;;;;5.44;80.65;100721.03;5073154;28;11217;-66
2022/12/30 06:55:21;;;;;;;;;2.00;2.00;;;;;5.41;80.56;100713.34;5072861;28;11514;-64
2022/12/30 06:57:49;;;;;;;;;5.25;3.50;;;;;5.48;80.57;100715.34;5073027;28;11098;-65
2022/12/30 07:00:16;;;;;;;;;2.25;2.25;;;;;5.49;80.98;100698.34;5073211;28;11444;-65
2022/12/30 07:02:42;;;;;;;;;2.25;1.00;;;;;5.55;81.03;100706.53;5073060;28;11184;-65
2022/12/30 07:05:09;;;;;;;;;2.25;2.25;;;;;5.52;80.71;100693.50;5072521;28;11114;-66
2022/12/30 07:07:35;;;;;;;;;3.00;1.00;;;;;5.50;80.82;100700.00;5073031;28;11717;-63
2022/12/30 07:10:03;;;;;;;;;2.00;2.00;;;;;5.36;81.18;100682.81;5072680;28;11181;-64
2022/12/30 07:12:29;;;;;;;;;2.25;2.25;;;;;5.38;80.87;100678.94;5071632;28;11197;-63
2022/12/30 07:14:55;;;;;;;;;4.50;1.00;;;;;5.43;81.10;100673.16;5072460;28;11461;-66
2022/12/30 07:17:22;;;;;;;;;1.75;1.75;;;;;5.31;81.21;100666.44;5072686;28;11129;-64
2022/12/30 07:19:48;;;;;;;;;4.00;2.00;;;;;5.24;81.50;100674.28;5083511;28;11031;-67
2022/12/30 07:22:16;;;;;;;;;3.00;3.00;;;;;5.28;81.14;100666.78;5085181;28;11457;-66
2022/12/30 07:24:42;;;;;;;;;3.00;2.00;;;;;5.28;81.48;100659.59;5076928;28;11454;-65
2022/12/30 07:27:12;;;;;;;;;1.75;1.75;;;;;5.26;81.63;100661.59;5077195;28;11455;-67
2022/12/30 07:29:38;;;;;;;;;3.25;3.25;;;;;5.21;81.39;100664.75;5074243;28;11908;-65
2022/12/30 07:32:06;;;;;;;;;7.00;7.00;;;;;5.24;81.63;100655.59;5073055;28;11423;-66
2022/12/30 07:34:34;;;;;;;;;4.00;4.00;;;;;5.22;81.57;100660.25;5072372;28;11475;-67
2022/12/30 07:37:08;;;;;;;;;3.50;1.75;;;;;5.21;81.76;100648.72;5072167;28;11219;-66
2022/12/30 07:39:35;;;;;;;;;5.00;2.00;;;;;5.26;81.87;100650.06;5072296;28;11187;-66
2022/12/30 07:42:01;;;;;;;;;4.50;3.50;;;;;5.33;82.16;100640.41;5072247;28;11412;-66
2022/12/30 07:44:28;;;;;;;;;1.75;1.75;;;;;5.27;82.06;100636.59;5070996;28;11450;-66
2022/12/30 07:46:55;;;;;;;;;5.75;5.00;;;;;5.24;81.75;100628.91;5072435;28;11255;-66
2022/12/30 07:49:22;;;;;;;;;4.25;4.25;;;;;5.17;82.04;100623.38;5072474;28;11433;-67
2022/12/30 07:51:48;;;;;;;;;3.00;3.00;;;;;5.16;82.68;100615.56;5071964;28;11435;-66
2022/12/30 07:54:15;;;;;;;;;4.00;2.00;;;;;5.22;82.11;100604.19;5070563;28;11515;-67
2022/12/30 07:56:41;;;;;;;;;5.50;5.00;;;;;5.20;81.98;100606.22;5071668;28;11531;-68
2022/12/30 07:59:11;;;;;;;;;4.00;2.50;;;;;5.23;82.24;100610.41;5071929;28;11447;-68
2022/12/30 08:01:38;;;;;;;;;4.75;4.50;;;;;5.28;82.33;100595.56;5070493;28;11189;-68
2022/12/30 08:04:06;;;;;;;;;1.25;1.00;;;;;5.26;82.02;100597.53;5071460;28;11408;-67
2022/12/30 08:06:52;;;;;;;;;5.25;3.50;;;;;5.17;82.01;100609.22;5071822;28;11073;-67
2022/12/30 08:09:19;;;;;;;;;4.75;4.00;;;;;5.21;82.32;100603.38;5071779;28;11439;-68
2022/12/30 08:11:45;;;;;;;;;8.00;2.00;;;;;5.33;82.77;100603.06;5071899;28;11417;-67
2022/12/30 08:14:12;;;;;;;;;7.50;4.75;;;;;5.29;81.88;100599.88;5071614;28;12344;-68
2022/12/30 08:16:38;;;;;;;;;4.75;2.50;;;;;5.23;82.34;100587.22;5071885;28;11193;-68
2022/12/30 08:19:04;;;;;;;;;5.50;4.00;;;;;5.25;82.53;100576.38;5071834;28;11576;-68
2022/12/30 08:21:31;;;;;;;;;5.00;5.00;;;;;5.32;82.65;100569.38;5071722;28;11150;-68
2022/12/30 08:23:57;;;;;;;;;6.25;5.00;;;;;5.27;82.59;100564.53;5071843;28;11202;-65
2022/12/30 08:26:24;;;;;;;;;4.00;3.50;;;;;5.27;82.53;100577.88;5071471;28;11440;-67
2022/12/30 08:28:51;;;;;;;;;3.25;3.25;;;;;5.23;83.13;100586.38;5071924;28;11411;-67
2022/12/30 08:31:23;;;;;;;;;3.50;2.00;;;;;5.26;82.90;100581.53;5071718;28;11495;-68
2022/12/30 08:33:50;;;;;;;;;5.00;4.25;;;;;5.32;82.73;100574.72;5071619;28;11446;-68
2022/12/30 08:36:19;;;;;;;;;5.25;4.75;;;;;5.35;82.59;100569.03;5071895;28;11469;-68
2022/12/30 08:38:49;;;;;;;;;5.00;4.75;;;;;5.28;82.91;100571.53;5071653;28;11467;-67
2022/12/30 08:41:24;;;;;;;;;5.00;4.00;;;;;5.31;82.74;100576.53;5072806;28;11408;-68
2022/12/30 08:43:54;;;;;;;;;4.00;4.00;;;;;5.34;82.76;100576.19;5072749;28;11216;-66
2022/12/30 08:46:20;;;;;;;;;7.50;6.50;;;;;5.38;82.51;100566.00;5071588;28;11396;-67
2022/12/30 08:48:47;;;;;;;;;11.25;5.00;;;;;5.38;82.14;100558.84;5071507;28;11440;-67
2022/12/30 08:51:14;;;;;;;;;6.00;4.00;;;;;5.41;82.77;100563.03;5070306;28;11407;-67
2022/12/30 08:53:41;;;;;;;;;5.00;5.00;;;;;5.46;82.58;100561.50;5071575;28;11516;-66
2022/12/30 08:56:10;;;;;;;;;4.00;4.00;;;;;5.50;82.88;100561.19;5071111;28;11302;-67
2022/12/30 08:58:36;;;;;;;;;7.00;5.00;;;;;5.46;82.49;100556.16;5070931;28;11197;-66
2022/12/30 09:01:15;;;;;;;;;5.50;4.75;;;;;5.51;82.29;100560.16;5071239;28;12029;-67
2022/12/30 09:03:43;;;;;;;;;4.00;4.00;;;;;5.59;82.94;100554.81;5071164;28;11098;-67
2022/12/30 09:06:12;;;;;;;;;8.25;4.00;;;;;5.60;82.25;100552.00;5070317;28;11422;-67
2022/12/30 09:08:39;;;;;;;;;4.25;4.25;;;;;5.58;82.28;100545.97;5070783;28;11276;-65
2022/12/30 09:11:12;;;;;;;;;4.25;4.25;;;;;5.61;82.29;100547.50;5070401;28;11833;-66
2022/12/30 09:13:39;;;;;;;;;4.00;2.00;;;;;5.69;82.04;100536.78;5070198;28;11799;-67
2022/12/30 09:16:12;;;;;;;;;4.50;4.25;;;;;5.65;82.63;100536.28;5069312;28;11183;-68
2022/12/30 09:18:39;;;;;;;;;3.50;3.50;;;;;5.62;82.48;100533.13;5070605;28;11107;-66
2022/12/30 09:21:06;;;;;;;;;6.25;5.00;;;;;5.59;82.61;100520.97;5070478;28;11038;-68
2022/12/30 09:23:33;;;;;;;;;6.00;5.00;;;;;5.72;82.43;100522.28;5070266;28;11062;-67
2022/12/30 09:26:00;;;;;;;;;4.50;3.25;;;;;5.75;82.33;100517.41;5070366;28;11075;-68
2022/12/30 09:28:26;;;;;;;;;2.25;1.75;;;;;5.86;82.54;100506.34;5070346;28;11448;-66
2022/12/30 09:30:53;;;;;;;;;5.00;2.00;;;;;5.91;81.69;100496.00;5070345;28;10968;-67
2022/12/30 09:33:19;;;;;;;;;4.75;4.75;;;;;5.98;81.51;100504.19;5070404;28;11014;-67
2022/12/30 09:35:45;;;;;;;;;6.00;3.50;;;;;5.96;81.76;100492.84;5070145;28;11103;-67
2022/12/30 09:38:12;;;;;;;;;2.00;2.00;;;;;6.04;81.54;100494.66;5069974;28;11045;-67
2022/12/30 09:40:45;;;;;;;;;5.00;5.00;;;;;5.92;81.64;100473.66;5068961;28;11073;-67
2022/12/30 09:43:24;;;;;;;;;4.25;2.50;;;;;5.99;82.37;100470.28;5070035;28;11053;-66
2022/12/30 09:46:01;;;;;;;;;5.00;4.75;;;;;6.01;81.46;100468.28;5070163;28;11841;-67
2022/12/30 09:48:34;;;;;;;;;4.25;2.00;;;;;5.98;81.60;100465.94;5070122;28;11060;-66
2022/12/30 09:51:05;;;;;;;;;4.75;4.00;;;;;5.99;81.55;100455.09;5070403;28;11131;-67
2022/12/30 09:53:55;;;;;;;;;4.00;1.75;;;;;5.99;81.89;100455.09;5070381;28;11182;-67
2022/12/30 09:56:32;;;;;;;;;2.00;2.00;;;;;5.91;82.12;100441.72;5070128;28;11048;-67
2022/12/30 09:59:05;;;;;;;;;7.75;6.75;;;;;6.02;81.87;100421.84;5070049;28;11030;-66
2022/12/30 10:01:42;;;;;;;;;2.00;1.75;;;;;6.12;82.28;100433.16;5070339;28;11125;-65
2022/12/30 10:04:16;;;;;;;;;4.25;4.00;;;;;6.07;81.98;100414.13;5070021;28;11086;-66
2022/12/30 10:07:02;;;;;;;;;3.00;1.75;;;;;5.97;82.28;100425.06;5070155;28;10925;-68
2022/12/30 10:09:42;;;;;;;;;2.00;2.00;;;;;6.10;81.84;100419.13;5069873;28;10941;-68
2022/12/30 10:12:24;;;;;;;;;4.50;4.00;;;;;6.19;81.67;100410.88;5069960;28;11055;-67
2022/12/30 10:15:16;;;;;;;;;2.00;2.00;;;;;6.10;82.10;100406.59;5069965;28;10907;-65
2022/12/30 10:18:12;;;;;;;;;1.25;1.00;;;;;6.07;82.55;100412.28;5069998;28;10967;-67
2022/12/30 10:20:52;;;;;;;;;7.75;2.00;;;;;6.04;82.05;100398.47;5070048;28;10719;-66
2022/12/30 10:23:41;;;;;;;;;2.00;1.00;;;;;6.13;82.49;100384.88;5069803;28;10794;-67
2022/12/30 10:26:25;;;;;;;;;1.00;1.00;;;;;6.24;82.33;100375.63;5071370;28;10864;-67
2022/12/30 10:28:59;;;;;;;;;2.00;2.00;;;;;6.21;82.27;100359.94;5073518;28;10805;-67
2022/12/30 10:31:29;;;;;;;;;2.00;2.00;;;;;6.32;81.83;100359.53;5073706;28;10630;-68
2022/12/30 10:34:10;;;;;;;;;1.00;1.00;;;;;6.37;81.44;100351.81;5073407;28;10788;-68
2022/12/30 10:36:56;;;;;;;;;1.00;1.00;;;;;6.43;81.94;100335.03;5073492;28;10883;-66
2022/12/30 10:39:28;;;;;;;;;1.00;1.00;;;;;6.39;81.25;100319.53;5073231;28;10733;-66
2022/12/30 10:42:33;;;;;;;;;4.25;4.25;;;;;6.43;81.64;100312.81;5073481;28;10697;-67
2022/12/30 10:45:30;;;;;;;;;2.00;2.00;;;;;6.40;81.78;100291.78;5073113;28;10811;-66
2022/12/30 10:48:15;;;;;;;;;1.50;1.50;;;;;6.46;81.63;100268.88;5073333;28;11422;-67
2022/12/30 10:50:45;;;;;;;;;0.25;0.25;;;;;6.50;81.20;100271.00;5073079;28;11447;-66
2022/12/30 10:53:18;;;;;;;;;1.00;1.00;;;;;6.57;80.94;100263.91;5072976;28;10980;-66
2022/12/30 10:55:51;;;;;;;;;1.50;1.50;;;;;6.57;80.91;100263.06;5072999;28;10765;-66
2022/12/30 10:58:32;;;;;;;;;2.00;1.00;;;;;6.65;80.84;100246.94;5072944;28;10876;-66
2022/12/30 11:01:01;;;;;;;;;1.25;1.00;;;;;6.71;81.01;100245.38;5073131;28;10717;-66
2022/12/30 11:03:30;;;;;;;;;2.00;1.00;;;;;6.66;80.82;100222.69;5072969;28;10702;-69
2022/12/30 11:06:25;;;;;;;;;0.00;0.00;;;;;6.61;80.70;100225.09;5072743;28;10781;-67
2022/12/30 11:08:54;;;;;;;;;1.25;1.25;;;;;6.67;80.97;100219.00;5065725;28;10711;-68
2022/12/30 11:14:42;;;;;;;;;3.00;1.00;;;;;6.69;81.38;100202.78;5072780;28;10776;-67
2022/12/30 11:14:42;;;;;;;;;3.00;1.50;;;;;6.62;80.76;100200.00;5072781;28;10721;-67
2022/12/30 11:17:14;;;;;;;;;1.00;1.00;;;;;6.68;81.07;100182.38;5072919;28;10775;-67
2022/12/30 11:19:43;;;;;;;;;1.00;1.00;;;;;6.76;80.70;100163.56;5072632;28;10638;-67
2022/12/30 11:22:10;;;;;;;;;0.00;0.00;;;;;6.82;79.98;100151.28;5072471;28;10783;-67
2022/12/30 11:24:37;;;;;;;;;1.75;1.75;;;;;6.78;80.79;100142.81;5072556;28;10772;-67
2022/12/30 11:27:04;;;;;;;;;2.00;1.00;;;;;6.75;80.62;100137.00;5073216;28;10838;-67
2022/12/30 11:29:33;;;;;;;;;0.00;0.00;;;;;6.83;80.79;100116.31;5071558;28;10726;-67
2022/12/30 11:32:09;;;;;;;;;1.00;1.00;;;;;6.83;80.34;100126.19;5072846;28;10626;-67
2022/12/30 11:34:40;;;;;;;;;4.00;1.50;;;;;6.75;80.69;100097.72;5071273;28;10686;-67
2022/12/30 11:37:33;;;;;;;;;1.50;1.25;;;;;6.78;80.57;100083.97;5072181;28;10808;-68
2022/12/30 11:40:31;;;;;;;;;0.50;0.00;;;;;6.76;81.76;100061.91;5073143;28;11531;-66
2022/12/30 11:43:13;;;;;;;;;2.50;1.00;;;;;6.84;80.98;100069.00;5054816;28;10562;-68
2022/12/30 11:45:52;;;;;;;;;1.00;0.50;;;;;6.84;80.44;100053.78;5072323;28;10666;-67
2022/12/30 11:48:36;;;;;;;;;1.00;1.00;;;;;6.94;80.26;100056.97;5072629;28;10577;-68
2022/12/30 11:51:17;;;;;;;;;3.50;1.00;;;;;6.95;80.88;100028.38;5072263;28;10660;-68
2022/12/30 11:53:43;;;;;;;;;1.00;1.00;;;;;6.94;80.78;100011.50;5072099;28;11393;-67
2022/12/30 11:56:10;;;;;;;;;0.50;0.00;;;;;7.06;80.54;100016.34;5072458;28;10748;-68
2022/12/30 11:58:39;;;;;;;;;0.25;0.25;;;;;7.16;79.83;100014.97;5075014;28;10704;-68
2022/12/30 12:01:11;;;;;;;;;0.50;0.50;;;;;7.06;80.45;100002.97;5077087;28;10622;-67
2022/12/30 12:03:57;;;;;;;;;0.50;0.00;;;;;7.10;80.57;100001.56;5075759;28;10538;-67
2022/12/30 12:06:24;;;;;;;;;3.50;2.25;;;;;7.07;80.54;99991.22;5072510;28;10624;-67
2022/12/30 12:09:00;;;;;;;;;5.75;2.00;;;;;7.10;80.87;99978.31;5077088;28;10697;-66
2022/12/30 12:11:35;;;;;;;;;0.25;0.25;;;;;7.19;80.33;99962.94;5072935;28;10826;-66
2022/12/30 12:14:20;;;;;;;;;1.00;1.00;;;;;7.28;80.30;99964.44;5072257;28;10681;-66
2022/12/30 12:17:01;;;;;;;;;1.50;1.50;;;;;7.30;80.54;99953.53;5073090;28;10548;-67
2022/12/30 12:19:55;;;;;;;;;2.00;1.00;;;;;7.25;81.08;99932.72;5072651;28;10565;-67
2022/12/30 12:22:34;;;;;;;;;4.00;1.00;;;;;7.25;80.91;99937.22;5071833;28;10539;-66
2022/12/30 12:25:13;;;;;;;;;0.00;0.00;;;;;7.24;82.09;99931.03;5071419;28;10490;-66
2022/12/30 12:27:40;;;;;;;;;0.00;0.00;;;;;7.22;81.95;99940.31;5071608;28;10643;-67
2022/12/30 12:30:13;;;;;;;;;2.00;0.25;;;;;7.12;83.01;99932.59;5071632;28;10504;-66
2022/12/30 12:33:23;;;;;;;;;1.00;1.00;;;;;7.19;82.43;99912.06;5071455;28;10664;-67
2022/12/30 12:36:02;;;;;;;;;2.00;2.00;;;;;7.26;83.11;99896.91;5070749;28;10490;-67
2022/12/30 12:38:35;;;;;;;;;2.00;0.75;;;;;7.23;82.90;99883.91;5070075;28;10649;-67
2022/12/30 12:41:22;;;;;;;;;1.00;1.00;;;;;7.31;83.47;99872.22;5071120;28;10644;-67
2022/12/30 12:44:00;;;;;;;;;1.00;0.75;;;;;7.33;83.29;99865.66;5070961;28;10551;-66
2022/12/30 12:46:46;;;;;;;;;2.00;2.00;;;;;7.33;83.68;99862.13;5071121;28;10649;-67
2022/12/30 12:49:43;;;;;;;;;2.00;2.00;;;;;7.30;83.05;99863.34;5070331;28;10747;-66
2022/12/30 12:52:16;;;;;;;;;0.00;0.00;;;;;7.32;83.61;99837.19;5070981;28;10682;-67
2022/12/30 12:54:44;;;;;;;;;1.00;0.25;;;;;7.32;84.24;99813.09;5070592;28;10634;-67